createdAt,value
2022-12-16T05:42:51.539Z,18.38
2022-12-16T05:56:55.895Z,18.65
2022-12-16T06:03:16.408Z,19.73
2022-12-16T06:09:37.137Z,15.55
2022-12-16T06:15:57.450Z,14.82
2022-12-16T06:22:17.843Z,11.32
2022-12-16T06:33:28.232Z,11.68
2022-12-16T06:39:52.930Z,10.32
2022-12-16T06:46:13.640Z,14.40
2022-12-16T06:52:35.435Z,17.20
2022-12-16T06:59:00.558Z,13.48
2022-12-16T07:05:20.954Z,15.88
2022-12-16T07:11:41.451Z,12.07
2022-12-16T07:18:04.015Z,14.55
2022-12-16T07:24:24.276Z,17.13
2022-12-16T07:31:04.536Z,16.60
2022-12-16T07:37:24.892Z,16.23
2022-12-16T07:43:45.091Z,16.77
2022-12-16T07:50:05.645Z,18.77
2022-12-16T07:56:26.584Z,18.60
2022-12-16T08:02:47.169Z,19.48
2022-12-16T08:09:07.594Z,19.25
2022-12-16T08:15:28.186Z,18.35
2022-12-16T08:21:48.633Z,15.20
2022-12-16T08:28:14.212Z,16.45
2022-12-16T08:34:34.760Z,20.60
2022-12-16T08:40:55.261Z,19.65
2022-12-16T08:47:15.577Z,18.42
2022-12-16T08:53:36.447Z,16.60
2022-12-16T08:59:56.889Z,18.23
2022-12-16T09:06:18.483Z,19.80
2022-12-16T09:12:39.075Z,22.10
2022-12-16T09:18:59.574Z,22.52
2022-12-16T09:25:19.671Z,21.50
2022-12-16T09:31:40.157Z,23.83
2022-12-16T09:38:07.701Z,24.42
2022-12-16T09:44:38.234Z,23.25
2022-12-16T09:51:01.559Z,21.90
2022-12-16T09:57:26.208Z,23.67
2022-12-16T10:03:55.754Z,21.40
2022-12-16T10:10:19.170Z,23.65
2022-12-16T10:16:57.815Z,24.25
2022-12-16T10:23:53.513Z,22.38
2022-12-16T10:30:14.390Z,25.17
2022-12-16T10:36:39.988Z,23.98
2022-12-16T10:43:23.017Z,24.75
2022-12-16T10:49:43.146Z,30.23
2022-12-16T10:56:40.542Z,28.35
2022-12-16T11:03:01.465Z,28.50
2022-12-16T11:09:43.022Z,27.08
2022-12-16T11:16:03.411Z,31.52
2022-12-16T11:22:41.287Z,27.92
2022-12-16T11:29:01.667Z,27.23
2022-12-16T11:35:24.534Z,27.17
2022-12-16T11:42:01.386Z,26.08
2022-12-16T11:48:56.795Z,26.10
2022-12-16T11:55:48.214Z,27.13
2022-12-16T12:02:15.746Z,26.55
2022-12-16T12:09:03.667Z,25.83
2022-12-16T12:15:55.104Z,29.27
2022-12-16T12:22:45.334Z,25.45
2022-12-16T12:29:23.963Z,27.75
2022-12-16T12:36:07.255Z,28.40
2022-12-16T12:42:49.991Z,26.95
2022-12-16T12:49:38.401Z,29.70
2022-12-16T12:56:02.967Z,29.40
2022-12-16T13:02:28.474Z,28.92
2022-12-16T13:09:12.564Z,26.13
2022-12-16T13:15:58.247Z,26.20
2022-12-16T13:22:19.041Z,28.95
2022-12-16T13:28:42.639Z,28.05
2022-12-16T13:35:02.889Z,27.48
2022-12-16T13:41:36.465Z,30.20
2022-12-16T13:47:59.366Z,29.30
2022-12-16T13:54:19.550Z,28.42
2022-12-16T14:00:45.271Z,29.27
2022-12-16T14:07:05.737Z,29.40
2022-12-16T14:13:50.115Z,29.70
2022-12-16T14:20:50.706Z,30.60
2022-12-16T14:27:11.690Z,31.02
2022-12-16T14:33:42.106Z,31.02
2022-12-16T14:40:02.918Z,29.63
2022-12-16T14:46:23.669Z,31.42
2022-12-16T14:52:45.697Z,32.30
2022-12-16T14:59:06.020Z,34.33
2022-12-16T15:05:26.214Z,34.25
2022-12-16T15:11:46.994Z,33.72
2022-12-16T15:18:20.776Z,33.35
2022-12-16T15:24:44.057Z,33.35
2022-12-16T15:31:06.021Z,32.92
2022-12-16T15:37:56.998Z,32.05
2022-12-16T15:44:20.884Z,28.23
2022-12-16T15:50:44.969Z,28.63
2022-12-16T15:57:05.715Z,29.13
2022-12-16T16:03:48.328Z,26.00
2022-12-16T16:10:08.563Z,25.30
2022-12-16T16:23:04.066Z,18.50
2022-12-16T16:34:25.878Z,18.50
2022-12-16T16:40:52.715Z,16.10
2022-12-16T16:47:13.659Z,15.05
2022-12-16T16:53:35.416Z,16.90
2022-12-16T16:59:56.095Z,15.30
2022-12-16T17:06:16.440Z,15.88
2022-12-16T17:12:43.129Z,16.15
2022-12-16T17:19:03.768Z,14.07
2022-12-16T17:25:24.828Z,16.42
2022-12-16T17:31:44.999Z,14.85
2022-12-16T17:38:05.563Z,16.17
2022-12-16T17:44:25.780Z,15.38
2022-12-16T17:50:45.919Z,15.43
2022-12-16T17:57:06.339Z,15.25
2022-12-16T18:03:26.609Z,15.70
2022-12-16T18:09:46.753Z,18.02
2022-12-16T18:16:11.739Z,17.15
2022-12-16T18:28:55.063Z,18.13
2022-12-16T18:35:15.233Z,15.85
2022-12-16T18:41:38.739Z,13.90
2022-12-16T18:47:59.190Z,13.27
2022-12-16T18:54:19.468Z,13.18
2022-12-16T19:00:39.703Z,14.57
2022-12-16T19:07:00.240Z,15.13
2022-12-16T19:13:20.372Z,17.48
2022-12-16T19:19:40.793Z,13.18
2022-12-16T19:26:01.044Z,13.90
2022-12-16T19:32:21.381Z,18.02
2022-12-16T19:38:41.716Z,17.77
2022-12-16T19:45:02.001Z,16.58
2022-12-16T19:51:24.287Z,19.40
2022-12-16T19:57:44.796Z,19.15
2022-12-16T20:04:04.873Z,18.40
2022-12-16T20:10:25.661Z,18.65
2022-12-16T20:16:46.362Z,20.08
2022-12-16T20:23:06.711Z,19.45
2022-12-16T20:29:27.092Z,19.67
2022-12-16T20:35:47.440Z,20.17
2022-12-16T20:42:07.496Z,19.10
2022-12-16T20:48:33.018Z,19.17
2022-12-16T20:54:56.077Z,19.67
2022-12-16T21:01:16.504Z,18.40
2022-12-16T21:07:36.652Z,18.13
2022-12-16T21:13:56.888Z,18.05
2022-12-16T21:20:17.419Z,18.10
2022-12-16T21:26:38.047Z,17.80
2022-12-16T21:32:58.197Z,27.35
2022-12-16T21:39:18.848Z,21.48
2022-12-16T21:45:38.983Z,18.70
2022-12-16T21:51:59.086Z,22.42
2022-12-16T21:58:19.542Z,19.27
2022-12-16T22:04:39.873Z,19.95
2022-12-16T22:11:00.431Z,27.98
2022-12-16T22:17:20.784Z,25.95
2022-12-16T22:23:45.892Z,29.27
2022-12-16T22:30:06.416Z,27.85
2022-12-16T22:36:28.432Z,24.13
2022-12-16T22:42:48.703Z,26.48
2022-12-16T22:49:09.088Z,24.30
2022-12-16T22:55:29.759Z,22.42
2022-12-16T23:01:50.121Z,31.60
2022-12-16T23:08:10.351Z,29.05
2022-12-16T23:14:30.576Z,30.63
2022-12-16T23:20:51.885Z,33.97
2022-12-16T23:27:12.034Z,31.80
2022-12-16T23:33:32.318Z,30.55
2022-12-16T23:39:53.605Z,32.78
2022-12-16T23:46:16.732Z,30.13
2022-12-16T23:52:37.048Z,30.35
2022-12-16T23:58:57.440Z,29.10
